sensor_id;sensor_type;location;lat;lon;timestamp;temperature;humidity
44579;DHT22;37422;51.402;0.016;2022-11-30T00:01:29;8.30;99.90
44579;DHT22;37422;51.402;0.016;2022-11-30T00:03:58;8.30;99.90
44579;DHT22;37422;51.402;0.016;2022-11-30T00:06:25;8.30;99.90
44579;DHT22;37422;51.402;0.016;2022-11-30T00:08:54;8.30;99.90
44579;DHT22;37422;51.402;0.016;2022-11-30T00:11:24;8.20;99.90
44579;DHT22;37422;51.402;0.016;2022-11-30T00:13:52;8.30;99.90
44579;DHT22;37422;51.402;0.016;2022-11-30T00:16:20;8.30;99.90
44579;DHT22;37422;51.402;0.016;2022-11-30T00:18:48;8.20;99.90
44579;DHT22;37422;51.402;0.016;2022-11-30T00:21:16;8.20;99.90
44579;DHT22;37422;51.402;0.016;2022-11-30T00:23:45;8.20;99.90
44579;DHT22;37422;51.402;0.016;2022-11-30T00:26:16;8.20;99.90
44579;DHT22;37422;51.402;0.016;2022-11-30T00:28:45;8.20;99.90
44579;DHT22;37422;51.402;0.016;2022-11-30T00:31:16;8.20;99.90
44579;DHT22;37422;51.402;0.016;2022-11-30T00:33:45;8.20;99.90
44579;DHT22;37422;51.402;0.016;2022-11-30T00:36:15;8.20;99.90
44579;DHT22;37422;51.402;0.016;2022-11-30T00:38:44;8.10;99.90
44579;DHT22;37422;51.402;0.016;2022-11-30T00:41:12;8.10;99.90
44579;DHT22;37422;51.402;0.016;2022-11-30T00:43:40;8.10;99.90
44579;DHT22;37422;51.402;0.016;2022-11-30T00:46:08;8.10;99.90
44579;DHT22;37422;51.402;0.016;2022-11-30T00:48:37;8.00;99.90
44579;DHT22;37422;51.402;0.016;2022-11-30T00:51:07;8.00;99.90
44579;DHT22;37422;51.402;0.016;2022-11-30T00:53:35;8.10;99.90
44579;DHT22;37422;51.402;0.016;2022-11-30T00:56:04;8.10;99.90
44579;DHT22;37422;51.402;0.016;2022-11-30T00:58:32;8.00;99.90
44579;DHT22;37422;51.402;0.016;2022-11-30T01:01:00;8.10;99.90
44579;DHT22;37422;51.402;0.016;2022-11-30T01:03:28;8.10;99.90
44579;DHT22;37422;51.402;0.016;2022-11-30T01:06:03;8.10;99.90
44579;DHT22;37422;51.402;0.016;2022-11-30T01:08:32;8.10;99.90
44579;DHT22;37422;51.402;0.016;2022-11-30T01:11:06;8.10;99.90
44579;DHT22;37422;51.402;0.016;2022-11-30T01:13:34;8.10;99.90
44579;DHT22;37422;51.402;0.016;2022-11-30T01:16:11;8.10;99.90
44579;DHT22;37422;51.402;0.016;2022-11-30T01:18:39;8.10;99.90
44579;DHT22;37422;51.402;0.016;2022-11-30T01:21:13;8.10;99.90
44579;DHT22;37422;51.402;0.016;2022-11-30T01:23:41;8.10;99.90
44579;DHT22;37422;51.402;0.016;2022-11-30T01:26:10;8.10;99.90
44579;DHT22;37422;51.402;0.016;2022-11-30T01:28:38;8.10;99.90
44579;DHT22;37422;51.402;0.016;2022-11-30T01:31:09;8.10;99.90
44579;DHT22;37422;51.402;0.016;2022-11-30T01:33:38;8.10;99.90
44579;DHT22;37422;51.402;0.016;2022-11-30T01:36:12;8.10;99.90
44579;DHT22;37422;51.402;0.016;2022-11-30T01:38:43;8.10;99.90
44579;DHT22;37422;51.402;0.016;2022-11-30T01:41:12;8.10;99.90
44579;DHT22;37422;51.402;0.016;2022-11-30T01:43:51;8.20;99.90
44579;DHT22;37422;51.402;0.016;2022-11-30T01:51:56;8.20;99.90
44579;DHT22;37422;51.402;0.016;2022-11-30T01:54:32;8.10;99.90
44579;DHT22;37422;51.402;0.016;2022-11-30T01:57:16;8.10;99.90
44579;DHT22;37422;51.402;0.016;2022-11-30T01:59:49;8.10;99.90
44579;DHT22;37422;51.402;0.016;2022-11-30T02:02:31;8.10;99.90
44579;DHT22;37422;51.402;0.016;2022-11-30T02:05:03;8.00;99.90
44579;DHT22;37422;51.402;0.016;2022-11-30T02:07:31;8.00;99.90
44579;DHT22;37422;51.402;0.016;2022-11-30T02:09:59;7.90;99.90
44579;DHT22;37422;51.402;0.016;2022-11-30T02:12:41;7.90;99.90
44579;DHT22;37422;51.402;0.016;2022-11-30T02:15:20;7.90;99.90
44579;DHT22;37422;51.402;0.016;2022-11-30T02:18:06;7.80;99.90
44579;DHT22;37422;51.402;0.016;2022-11-30T02:29:15;7.70;99.90
44579;DHT22;37422;51.402;0.016;2022-11-30T02:32:04;7.70;99.90
44579;DHT22;37422;51.402;0.016;2022-11-30T02:34:36;7.80;99.90
44579;DHT22;37422;51.402;0.016;2022-11-30T02:37:05;7.70;99.90
44579;DHT22;37422;51.402;0.016;2022-11-30T02:39:34;7.70;99.90
44579;DHT22;37422;51.402;0.016;2022-11-30T02:42:02;7.80;99.90
44579;DHT22;37422;51.402;0.016;2022-11-30T02:44:30;7.80;99.90
44579;DHT22;37422;51.402;0.016;2022-11-30T02:49:42;7.80;99.90
44579;DHT22;37422;51.402;0.016;2022-11-30T02:52:12;7.80;99.90
44579;DHT22;37422;51.402;0.016;2022-11-30T02:54:41;7.80;99.90
44579;DHT22;37422;51.402;0.016;2022-11-30T02:57:09;7.80;99.90
44579;DHT22;37422;51.402;0.016;2022-11-30T02:59:37;7.80;99.90
44579;DHT22;37422;51.402;0.016;2022-11-30T03:02:05;7.80;99.90
44579;DHT22;37422;51.402;0.016;2022-11-30T03:04:33;7.80;99.90
44579;DHT22;37422;51.402;0.016;2022-11-30T03:07:01;7.80;99.90
44579;DHT22;37422;51.402;0.016;2022-11-30T03:09:29;7.80;99.90
44579;DHT22;37422;51.402;0.016;2022-11-30T03:11:56;7.80;99.90
44579;DHT22;37422;51.402;0.016;2022-11-30T03:14:24;7.80;99.90
44579;DHT22;37422;51.402;0.016;2022-11-30T03:16:52;7.80;99.90
44579;DHT22;37422;51.402;0.016;2022-11-30T03:19:19;7.80;99.90
44579;DHT22;37422;51.402;0.016;2022-11-30T03:21:47;7.80;99.90
44579;DHT22;37422;51.402;0.016;2022-11-30T03:24:15;7.80;99.90
44579;DHT22;37422;51.402;0.016;2022-11-30T03:26:43;7.80;99.90
44579;DHT22;37422;51.402;0.016;2022-11-30T03:29:10;7.80;99.90
44579;DHT22;37422;51.402;0.016;2022-11-30T03:31:38;7.80;99.90
44579;DHT22;37422;51.402;0.016;2022-11-30T03:34:06;7.80;99.90
44579;DHT22;37422;51.402;0.016;2022-11-30T03:36:33;7.80;99.90
44579;DHT22;37422;51.402;0.016;2022-11-30T03:39:01;7.80;99.90
44579;DHT22;37422;51.402;0.016;2022-11-30T03:41:29;7.80;99.90
44579;DHT22;37422;51.402;0.016;2022-11-30T03:43:57;7.90;99.90
44579;DHT22;37422;51.402;0.016;2022-11-30T03:46:25;7.90;99.90
44579;DHT22;37422;51.402;0.016;2022-11-30T03:48:54;7.90;99.90
44579;DHT22;37422;51.402;0.016;2022-11-30T03:51:21;7.90;99.90
44579;DHT22;37422;51.402;0.016;2022-11-30T03:53:49;7.90;99.90
44579;DHT22;37422;51.402;0.016;2022-11-30T03:56:16;7.90;99.90
44579;DHT22;37422;51.402;0.016;2022-11-30T03:58:44;7.90;99.90
44579;DHT22;37422;51.402;0.016;2022-11-30T04:01:15;7.90;99.90
44579;DHT22;37422;51.402;0.016;2022-11-30T04:03:44;7.90;99.90
44579;DHT22;37422;51.402;0.016;2022-11-30T04:06:11;8.30;99.90
44579;DHT22;37422;51.402;0.016;2022-11-30T04:08:40;7.90;99.90
44579;DHT22;37422;51.402;0.016;2022-11-30T04:11:08;7.90;99.90
44579;DHT22;37422;51.402;0.016;2022-11-30T04:13:37;7.90;99.90
44579;DHT22;37422;51.402;0.016;2022-11-30T04:16:05;7.90;99.90
44579;DHT22;37422;51.402;0.016;2022-11-30T04:18:34;7.90;99.90
44579;DHT22;37422;51.402;0.016;2022-11-30T04:21:03;7.90;99.90
44579;DHT22;37422;51.402;0.016;2022-11-30T04:23:34;7.90;99.90
44579;DHT22;37422;51.402;0.016;2022-11-30T04:26:07;7.90;99.90
44579;DHT22;37422;51.402;0.016;2022-11-30T04:28:34;7.80;99.90
44579;DHT22;37422;51.402;0.016;2022-11-30T04:31:02;7.90;99.90
44579;DHT22;37422;51.402;0.016;2022-11-30T04:33:30;7.90;99.90
44579;DHT22;37422;51.402;0.016;2022-11-30T04:36:00;7.90;99.90
44579;DHT22;37422;51.402;0.016;2022-11-30T04:38:28;7.90;99.90
44579;DHT22;37422;51.402;0.016;2022-11-30T04:40:56;7.90;99.90
44579;DHT22;37422;51.402;0.016;2022-11-30T04:43:26;7.90;99.90
44579;DHT22;37422;51.402;0.016;2022-11-30T04:45:54;7.90;99.90
44579;DHT22;37422;51.402;0.016;2022-11-30T04:48:21;8.00;99.90
44579;DHT22;37422;51.402;0.016;2022-11-30T04:50:49;7.80;99.90
44579;DHT22;37422;51.402;0.016;2022-11-30T04:53:17;7.80;99.90
44579;DHT22;37422;51.402;0.016;2022-11-30T04:55:44;7.70;99.90
44579;DHT22;37422;51.402;0.016;2022-11-30T04:58:12;7.80;99.90
44579;DHT22;37422;51.402;0.016;2022-11-30T05:00:39;7.80;99.90
44579;DHT22;37422;51.402;0.016;2022-11-30T05:03:07;7.70;99.90
44579;DHT22;37422;51.402;0.016;2022-11-30T05:05:35;7.70;99.90
44579;DHT22;37422;51.402;0.016;2022-11-30T05:08:02;7.70;99.90
44579;DHT22;37422;51.402;0.016;2022-11-30T05:10:30;7.70;99.90
44579;DHT22;37422;51.402;0.016;2022-11-30T05:13:00;7.60;99.90
44579;DHT22;37422;51.402;0.016;2022-11-30T05:15:28;7.60;99.90
44579;DHT22;37422;51.402;0.016;2022-11-30T05:18:00;7.50;99.90
44579;DHT22;37422;51.402;0.016;2022-11-30T05:20:28;7.50;99.90
44579;DHT22;37422;51.402;0.016;2022-11-30T05:22:56;7.50;99.90
44579;DHT22;37422;51.402;0.016;2022-11-30T05:25:24;7.50;99.90
44579;DHT22;37422;51.402;0.016;2022-11-30T05:27:51;7.40;99.90
44579;DHT22;37422;51.402;0.016;2022-11-30T05:30:19;7.40;99.90
44579;DHT22;37422;51.402;0.016;2022-11-30T05:32:47;7.40;99.90
44579;DHT22;37422;51.402;0.016;2022-11-30T05:35:15;7.40;99.90
44579;DHT22;37422;51.402;0.016;2022-11-30T05:37:42;7.30;99.90
44579;DHT22;37422;51.402;0.016;2022-11-30T05:40:10;7.40;99.90
44579;DHT22;37422;51.402;0.016;2022-11-30T05:42:38;7.30;99.90
44579;DHT22;37422;51.402;0.016;2022-11-30T05:45:06;7.30;99.90
44579;DHT22;37422;51.402;0.016;2022-11-30T05:47:34;7.30;99.90
44579;DHT22;37422;51.402;0.016;2022-11-30T05:50:01;7.40;99.90
44579;DHT22;37422;51.402;0.016;2022-11-30T05:52:29;7.30;99.90
44579;DHT22;37422;51.402;0.016;2022-11-30T05:54:57;7.30;99.90
44579;DHT22;37422;51.402;0.016;2022-11-30T05:57:25;7.30;99.90
44579;DHT22;37422;51.402;0.016;2022-11-30T05:59:53;7.30;99.90
44579;DHT22;37422;51.402;0.016;2022-11-30T06:02:21;7.30;99.90
44579;DHT22;37422;51.402;0.016;2022-11-30T06:04:54;7.30;99.90
44579;DHT22;37422;51.402;0.016;2022-11-30T06:07:22;7.30;99.90
44579;DHT22;37422;51.402;0.016;2022-11-30T06:09:49;7.30;99.90
44579;DHT22;37422;51.402;0.016;2022-11-30T06:12:17;7.30;99.90
44579;DHT22;37422;51.402;0.016;2022-11-30T06:14:45;7.40;99.90
44579;DHT22;37422;51.402;0.016;2022-11-30T06:17:13;7.40;99.90
44579;DHT22;37422;51.402;0.016;2022-11-30T06:19:41;7.40;99.90
44579;DHT22;37422;51.402;0.016;2022-11-30T06:22:08;7.40;99.90
44579;DHT22;37422;51.402;0.016;2022-11-30T06:24:36;7.40;99.90
44579;DHT22;37422;51.402;0.016;2022-11-30T06:27:04;7.30;99.90
44579;DHT22;37422;51.402;0.016;2022-11-30T06:29:31;7.40;99.90
44579;DHT22;37422;51.402;0.016;2022-11-30T06:31:59;7.40;99.90
44579;DHT22;37422;51.402;0.016;2022-11-30T06:34:30;7.40;99.90
44579;DHT22;37422;51.402;0.016;2022-11-30T06:36:58;7.40;99.90
44579;DHT22;37422;51.402;0.016;2022-11-30T06:39:25;7.50;99.90
44579;DHT22;37422;51.402;0.016;2022-11-30T06:42:13;7.20;99.90
44579;DHT22;37422;51.402;0.016;2022-11-30T06:44:41;7.40;99.90
44579;DHT22;37422;51.402;0.016;2022-11-30T06:47:08;7.40;99.90
44579;DHT22;37422;51.402;0.016;2022-11-30T06:49:36;7.40;99.90
44579;DHT22;37422;51.402;0.016;2022-11-30T06:52:05;7.40;99.90
44579;DHT22;37422;51.402;0.016;2022-11-30T06:54:32;7.40;99.90
44579;DHT22;37422;51.402;0.016;2022-11-30T06:57:00;7.40;99.90
44579;DHT22;37422;51.402;0.016;2022-11-30T06:59:28;7.40;99.90
44579;DHT22;37422;51.402;0.016;2022-11-30T07:01:56;7.40;99.90
44579;DHT22;37422;51.402;0.016;2022-11-30T07:04:23;7.40;99.90
44579;DHT22;37422;51.402;0.016;2022-11-30T07:06:51;7.40;99.90
44579;DHT22;37422;51.402;0.016;2022-11-30T07:09:19;7.40;99.90
44579;DHT22;37422;51.402;0.016;2022-11-30T07:11:46;7.40;99.90
44579;DHT22;37422;51.402;0.016;2022-11-30T07:14:14;7.40;99.90
44579;DHT22;37422;51.402;0.016;2022-11-30T07:16:42;7.40;99.90
44579;DHT22;37422;51.402;0.016;2022-11-30T07:19:10;7.40;99.90
44579;DHT22;37422;51.402;0.016;2022-11-30T07:21:41;7.40;99.90
44579;DHT22;37422;51.402;0.016;2022-11-30T07:24:12;7.30;99.90
44579;DHT22;37422;51.402;0.016;2022-11-30T07:27:00;7.30;99.90
44579;DHT22;37422;51.402;0.016;2022-11-30T07:29:28;7.30;99.90
44579;DHT22;37422;51.402;0.016;2022-11-30T07:31:56;7.30;99.90
44579;DHT22;37422;51.402;0.016;2022-11-30T07:34:25;7.30;99.90
44579;DHT22;37422;51.402;0.016;2022-11-30T07:36:52;7.30;99.90
44579;DHT22;37422;51.402;0.016;2022-11-30T07:39:20;7.30;99.90
44579;DHT22;37422;51.402;0.016;2022-11-30T07:41:48;7.40;99.90
44579;DHT22;37422;51.402;0.016;2022-11-30T07:44:17;7.30;99.90
44579;DHT22;37422;51.402;0.016;2022-11-30T07:46:45;7.30;99.90
44579;DHT22;37422;51.402;0.016;2022-11-30T07:49:12;7.40;99.90
44579;DHT22;37422;51.402;0.016;2022-11-30T07:51:40;7.30;99.90
44579;DHT22;37422;51.402;0.016;2022-11-30T07:54:08;7.70;99.90
44579;DHT22;37422;51.402;0.016;2022-11-30T07:56:35;7.30;99.90
44579;DHT22;37422;51.402;0.016;2022-11-30T07:59:03;7.30;99.90
44579;DHT22;37422;51.402;0.016;2022-11-30T08:01:31;7.20;99.90
44579;DHT22;37422;51.402;0.016;2022-11-30T08:04:00;7.20;99.90
44579;DHT22;37422;51.402;0.016;2022-11-30T08:06:29;7.30;99.90
44579;DHT22;37422;51.402;0.016;2022-11-30T08:08:59;7.30;99.90
44579;DHT22;37422;51.402;0.016;2022-11-30T08:11:29;7.30;99.90
44579;DHT22;37422;51.402;0.016;2022-11-30T08:13:57;7.30;99.90
44579;DHT22;37422;51.402;0.016;2022-11-30T08:16:27;7.30;99.90
44579;DHT22;37422;51.402;0.016;2022-11-30T08:18:55;7.30;99.90
44579;DHT22;37422;51.402;0.016;2022-11-30T08:21:24;7.30;99.90
44579;DHT22;37422;51.402;0.016;2022-11-30T08:23:54;7.30;99.90
44579;DHT22;37422;51.402;0.016;2022-11-30T08:26:28;7.40;99.90
44579;DHT22;37422;51.402;0.016;2022-11-30T08:28:58;7.40;99.90
44579;DHT22;37422;51.402;0.016;2022-11-30T08:31:31;7.40;99.90
44579;DHT22;37422;51.402;0.016;2022-11-30T08:34:03;7.40;99.90
44579;DHT22;37422;51.402;0.016;2022-11-30T08:36:33;7.40;99.90
44579;DHT22;37422;51.402;0.016;2022-11-30T08:39:03;7.30;99.90
44579;DHT22;37422;51.402;0.016;2022-11-30T08:41:32;7.30;99.90
44579;DHT22;37422;51.402;0.016;2022-11-30T08:44:01;7.30;99.90
44579;DHT22;37422;51.402;0.016;2022-11-30T08:46:29;7.20;99.90
44579;DHT22;37422;51.402;0.016;2022-11-30T08:49:17;7.20;99.90
44579;DHT22;37422;51.402;0.016;2022-11-30T08:51:51;7.20;99.90
44579;DHT22;37422;51.402;0.016;2022-11-30T08:54:41;7.10;99.90
44579;DHT22;37422;51.402;0.016;2022-11-30T08:57:13;7.10;99.90
44579;DHT22;37422;51.402;0.016;2022-11-30T08:59:41;7.10;99.90
44579;DHT22;37422;51.402;0.016;2022-11-30T09:02:12;7.20;99.90
44579;DHT22;37422;51.402;0.016;2022-11-30T09:04:43;7.20;99.90
44579;DHT22;37422;51.402;0.016;2022-11-30T09:07:11;7.30;99.90
44579;DHT22;37422;51.402;0.016;2022-11-30T09:09:39;7.40;99.90
44579;DHT22;37422;51.402;0.016;2022-11-30T09:12:07;7.40;99.90
44579;DHT22;37422;51.402;0.016;2022-11-30T09:14:35;7.40;99.90
44579;DHT22;37422;51.402;0.016;2022-11-30T09:17:03;7.50;99.90
44579;DHT22;37422;51.402;0.016;2022-11-30T09:19:31;7.50;99.90
44579;DHT22;37422;51.402;0.016;2022-11-30T09:21:59;7.50;99.90
44579;DHT22;37422;51.402;0.016;2022-11-30T09:24:27;7.50;99.90
44579;DHT22;37422;51.402;0.016;2022-11-30T09:26:55;7.50;99.90
44579;DHT22;37422;51.402;0.016;2022-11-30T09:29:23;7.40;99.90
44579;DHT22;37422;51.402;0.016;2022-11-30T09:31:51;7.40;99.90
44579;DHT22;37422;51.402;0.016;2022-11-30T09:34:19;7.40;99.90
44579;DHT22;37422;51.402;0.016;2022-11-30T09:36:47;7.40;99.90
44579;DHT22;37422;51.402;0.016;2022-11-30T09:39:14;7.50;99.90
44579;DHT22;37422;51.402;0.016;2022-11-30T09:50:19;7.50;99.90
44579;DHT22;37422;51.402;0.016;2022-11-30T09:53:12;7.50;99.90
44579;DHT22;37422;51.402;0.016;2022-11-30T09:55:42;7.60;99.90
44579;DHT22;37422;51.402;0.016;2022-11-30T09:58:38;7.60;99.90
44579;DHT22;37422;51.402;0.016;2022-11-30T10:01:18;7.60;99.90
44579;DHT22;37422;51.402;0.016;2022-11-30T10:03:47;7.70;99.90
44579;DHT22;37422;51.402;0.016;2022-11-30T10:06:22;7.70;99.90
44579;DHT22;37422;51.402;0.016;2022-11-30T10:09:23;7.70;99.90
44579;DHT22;37422;51.402;0.016;2022-11-30T10:28:17;8.00;99.90
44579;DHT22;37422;51.402;0.016;2022-11-30T10:31:11;8.00;99.90
44579;DHT22;37422;51.402;0.016;2022-11-30T10:33:49;8.10;99.90
44579;DHT22;37422;51.402;0.016;2022-11-30T10:36:34;8.10;99.90
44579;DHT22;37422;51.402;0.016;2022-11-30T10:39:19;8.10;99.90
44579;DHT22;37422;51.402;0.016;2022-11-30T10:41:55;8.20;99.90
44579;DHT22;37422;51.402;0.016;2022-11-30T10:44:51;8.30;99.90
44579;DHT22;37422;51.402;0.016;2022-11-30T10:47:20;8.30;99.90
44579;DHT22;37422;51.402;0.016;2022-11-30T10:49:50;8.30;99.90
44579;DHT22;37422;51.402;0.016;2022-11-30T10:52:29;8.40;99.90
44579;DHT22;37422;51.402;0.016;2022-11-30T10:54:58;8.50;99.90
44579;DHT22;37422;51.402;0.016;2022-11-30T10:57:32;8.60;99.90
44579;DHT22;37422;51.402;0.016;2022-11-30T11:00:02;8.60;99.90
44579;DHT22;37422;51.402;0.016;2022-11-30T11:02:39;8.70;99.90
44579;DHT22;37422;51.402;0.016;2022-11-30T11:05:21;8.70;99.90
44579;DHT22;37422;51.402;0.016;2022-11-30T11:10:36;8.70;99.90
44579;DHT22;37422;51.402;0.016;2022-11-30T11:16:06;8.70;99.90
44579;DHT22;37422;51.402;0.016;2022-11-30T11:18:35;8.70;99.90
44579;DHT22;37422;51.402;0.016;2022-11-30T11:21:16;8.80;99.90
44579;DHT22;37422;51.402;0.016;2022-11-30T11:23:45;8.80;99.90
44579;DHT22;37422;51.402;0.016;2022-11-30T11:26:23;8.70;99.90
44579;DHT22;37422;51.402;0.016;2022-11-30T11:28:53;8.80;99.90
44579;DHT22;37422;51.402;0.016;2022-11-30T11:31:42;8.90;99.90
44579;DHT22;37422;51.402;0.016;2022-11-30T11:34:24;8.90;99.90
44579;DHT22;37422;51.402;0.016;2022-11-30T11:40:13;9.00;99.90
44579;DHT22;37422;51.402;0.016;2022-11-30T11:42:46;9.10;99.90
44579;DHT22;37422;51.402;0.016;2022-11-30T11:45:21;9.10;99.90
44579;DHT22;37422;51.402;0.016;2022-11-30T11:48:04;9.10;99.90
44579;DHT22;37422;51.402;0.016;2022-11-30T11:50:34;9.20;99.90
44579;DHT22;37422;51.402;0.016;2022-11-30T11:53:49;9.30;99.90
44579;DHT22;37422;51.402;0.016;2022-11-30T11:56:31;9.60;99.90
44579;DHT22;37422;51.402;0.016;2022-11-30T11:59:14;9.50;99.90
44579;DHT22;37422;51.402;0.016;2022-11-30T12:04:33;9.50;99.90
44579;DHT22;37422;51.402;0.016;2022-11-30T12:07:11;9.40;99.90
44579;DHT22;37422;51.402;0.016;2022-11-30T12:12:48;9.40;99.90
44579;DHT22;37422;51.402;0.016;2022-11-30T12:15:40;9.40;99.90
44579;DHT22;37422;51.402;0.016;2022-11-30T12:21:15;9.40;99.90
44579;DHT22;37422;51.402;0.016;2022-11-30T12:29:21;9.50;99.90
44579;DHT22;37422;51.402;0.016;2022-11-30T12:32:00;9.50;99.90
44579;DHT22;37422;51.402;0.016;2022-11-30T12:37:51;9.60;99.90
44579;DHT22;37422;51.402;0.016;2022-11-30T12:40:53;9.60;99.90
44579;DHT22;37422;51.402;0.016;2022-11-30T12:51:57;9.80;99.90
44579;DHT22;37422;51.402;0.016;2022-11-30T13:05:36;9.90;99.90
44579;DHT22;37422;51.402;0.016;2022-11-30T13:08:25;9.90;99.90
44579;DHT22;37422;51.402;0.016;2022-11-30T13:10:58;9.90;99.90
44579;DHT22;37422;51.402;0.016;2022-11-30T13:13:29;9.90;99.90
44579;DHT22;37422;51.402;0.016;2022-11-30T13:15:58;9.90;99.90
44579;DHT22;37422;51.402;0.016;2022-11-30T13:18:27;9.90;99.90
44579;DHT22;37422;51.402;0.016;2022-11-30T13:21:19;9.90;99.90
44579;DHT22;37422;51.402;0.016;2022-11-30T13:24:12;9.80;99.90
44579;DHT22;37422;51.402;0.016;2022-11-30T13:27:00;9.80;99.90
44579;DHT22;37422;51.402;0.016;2022-11-30T13:32:14;9.80;99.90
44579;DHT22;37422;51.402;0.016;2022-11-30T13:38:00;9.80;99.90
44579;DHT22;37422;51.402;0.016;2022-11-30T13:41:00;9.70;99.90
44579;DHT22;37422;51.402;0.016;2022-11-30T13:43:33;9.80;99.90
44579;DHT22;37422;51.402;0.016;2022-11-30T13:46:20;9.80;99.90
44579;DHT22;37422;51.402;0.016;2022-11-30T13:48:49;9.80;99.90
44579;DHT22;37422;51.402;0.016;2022-11-30T13:51:37;9.80;99.90
44579;DHT22;37422;51.402;0.016;2022-11-30T13:59:59;9.80;99.90
44579;DHT22;37422;51.402;0.016;2022-11-30T14:23:25;9.60;99.90
44579;DHT22;37422;51.402;0.016;2022-11-30T14:25:56;9.50;99.90
44579;DHT22;37422;51.402;0.016;2022-11-30T14:28:42;9.40;99.90
44579;DHT22;37422;51.402;0.016;2022-11-30T14:31:23;9.40;99.90
44579;DHT22;37422;51.402;0.016;2022-11-30T14:37:11;9.30;99.90
44579;DHT22;37422;51.402;0.016;2022-11-30T14:39:43;9.30;99.90
44579;DHT22;37422;51.402;0.016;2022-11-30T14:42:33;9.30;99.90
44579;DHT22;37422;51.402;0.016;2022-11-30T14:45:01;9.20;99.90
44579;DHT22;37422;51.402;0.016;2022-11-30T14:47:31;9.30;99.90
44579;DHT22;37422;51.402;0.016;2022-11-30T14:50:01;9.20;99.90
44579;DHT22;37422;51.402;0.016;2022-11-30T14:52:50;9.10;99.90
44579;DHT22;37422;51.402;0.016;2022-11-30T14:55:43;9.10;99.90
44579;DHT22;37422;51.402;0.016;2022-11-30T14:58:17;9.00;99.90
44579;DHT22;37422;51.402;0.016;2022-11-30T15:00:46;8.90;99.90
44579;DHT22;37422;51.402;0.016;2022-11-30T15:05:59;8.70;99.90
44579;DHT22;37422;51.402;0.016;2022-11-30T15:08:37;8.70;99.90
44579;DHT22;37422;51.402;0.016;2022-11-30T15:11:28;8.60;99.90
44579;DHT22;37422;51.402;0.016;2022-11-30T15:14:05;8.50;99.90
44579;DHT22;37422;51.402;0.016;2022-11-30T15:16:33;8.40;99.90
44579;DHT22;37422;51.402;0.016;2022-11-30T15:19:23;8.30;99.90
44579;DHT22;37422;51.402;0.016;2022-11-30T15:21:55;8.20;99.90
44579;DHT22;37422;51.402;0.016;2022-11-30T15:24:24;8.10;99.90
44579;DHT22;37422;51.402;0.016;2022-11-30T15:26:54;8.10;99.90
44579;DHT22;37422;51.402;0.016;2022-11-30T15:29:44;8.00;99.90
44579;DHT22;37422;51.402;0.016;2022-11-30T15:32:19;8.00;99.90
44579;DHT22;37422;51.402;0.016;2022-11-30T15:34:57;7.90;99.90
44579;DHT22;37422;51.402;0.016;2022-11-30T15:37:38;7.80;99.90
44579;DHT22;37422;51.402;0.016;2022-11-30T15:40:08;7.80;99.90
44579;DHT22;37422;51.402;0.016;2022-11-30T15:42:38;7.70;99.90
44579;DHT22;37422;51.402;0.016;2022-11-30T15:45:21;7.70;99.90
44579;DHT22;37422;51.402;0.016;2022-11-30T15:47:49;7.60;99.90
44579;DHT22;37422;51.402;0.016;2022-11-30T15:50:31;7.50;99.90
44579;DHT22;37422;51.402;0.016;2022-11-30T15:56:10;7.40;99.90
44579;DHT22;37422;51.402;0.016;2022-11-30T16:07:58;7.20;99.90
44579;DHT22;37422;51.402;0.016;2022-11-30T16:10:36;7.10;99.90
44579;DHT22;37422;51.402;0.016;2022-11-30T16:13:05;7.00;99.90
44579;DHT22;37422;51.402;0.016;2022-11-30T16:15:35;7.00;99.90
44579;DHT22;37422;51.402;0.016;2022-11-30T16:18:27;6.90;99.90
44579;DHT22;37422;51.402;0.016;2022-11-30T16:20:58;6.80;99.90
44579;DHT22;37422;51.402;0.016;2022-11-30T16:23:27;6.80;99.90
44579;DHT22;37422;51.402;0.016;2022-11-30T16:25:55;6.70;99.90
44579;DHT22;37422;51.402;0.016;2022-11-30T16:28:22;6.70;99.90
44579;DHT22;37422;51.402;0.016;2022-11-30T16:30:55;6.60;99.90
44579;DHT22;37422;51.402;0.016;2022-11-30T16:33:25;6.60;99.90
44579;DHT22;37422;51.402;0.016;2022-11-30T16:38:26;6.40;99.90
44579;DHT22;37422;51.402;0.016;2022-11-30T16:40:54;6.40;99.90
44579;DHT22;37422;51.402;0.016;2022-11-30T16:43:25;6.40;99.90
44579;DHT22;37422;51.402;0.016;2022-11-30T16:45:52;6.30;99.90
44579;DHT22;37422;51.402;0.016;2022-11-30T16:48:22;6.20;99.90
44579;DHT22;37422;51.402;0.016;2022-11-30T16:50:50;6.20;99.90
44579;DHT22;37422;51.402;0.016;2022-11-30T16:53:18;6.20;99.90
44579;DHT22;37422;51.402;0.016;2022-11-30T16:55:48;6.10;99.90
44579;DHT22;37422;51.402;0.016;2022-11-30T16:58:16;6.10;99.90
44579;DHT22;37422;51.402;0.016;2022-11-30T17:00:43;6.10;99.90
44579;DHT22;37422;51.402;0.016;2022-11-30T17:03:21;6.10;99.90
44579;DHT22;37422;51.402;0.016;2022-11-30T17:05:50;6.10;99.90
44579;DHT22;37422;51.402;0.016;2022-11-30T17:08:20;6.10;99.90
44579;DHT22;37422;51.402;0.016;2022-11-30T17:10:50;6.10;99.90
44579;DHT22;37422;51.402;0.016;2022-11-30T17:13:20;6.20;99.90
44579;DHT22;37422;51.402;0.016;2022-11-30T17:15:48;6.20;99.90
44579;DHT22;37422;51.402;0.016;2022-11-30T17:18:16;6.20;99.90
44579;DHT22;37422;51.402;0.016;2022-11-30T17:20:43;6.20;99.90
44579;DHT22;37422;51.402;0.016;2022-11-30T17:23:11;6.20;99.90
44579;DHT22;37422;51.402;0.016;2022-11-30T17:25:39;6.20;99.90
44579;DHT22;37422;51.402;0.016;2022-11-30T17:28:06;6.10;99.90
44579;DHT22;37422;51.402;0.016;2022-11-30T17:30:35;6.30;99.90
44579;DHT22;37422;51.402;0.016;2022-11-30T17:33:02;6.50;99.90
44579;DHT22;37422;51.402;0.016;2022-11-30T17:35:30;6.30;99.90
44579;DHT22;37422;51.402;0.016;2022-11-30T17:37:58;6.40;99.90
44579;DHT22;37422;51.402;0.016;2022-11-30T17:40:27;6.40;99.90
44579;DHT22;37422;51.402;0.016;2022-11-30T17:42:58;6.40;99.90
44579;DHT22;37422;51.402;0.016;2022-11-30T17:45:25;6.50;99.90
44579;DHT22;37422;51.402;0.016;2022-11-30T17:47:53;6.50;99.90
44579;DHT22;37422;51.402;0.016;2022-11-30T17:50:21;6.50;99.90
44579;DHT22;37422;51.402;0.016;2022-11-30T17:52:49;6.60;99.90
44579;DHT22;37422;51.402;0.016;2022-11-30T17:55:17;6.60;99.90
44579;DHT22;37422;51.402;0.016;2022-11-30T17:57:47;6.60;99.90
44579;DHT22;37422;51.402;0.016;2022-11-30T18:00:15;6.60;99.90
44579;DHT22;37422;51.402;0.016;2022-11-30T18:02:43;6.60;99.90
44579;DHT22;37422;51.402;0.016;2022-11-30T18:05:11;6.60;99.90
44579;DHT22;37422;51.402;0.016;2022-11-30T18:07:39;6.60;99.90
44579;DHT22;37422;51.402;0.016;2022-11-30T18:10:09;6.70;99.90
44579;DHT22;37422;51.402;0.016;2022-11-30T18:12:37;6.70;99.90
44579;DHT22;37422;51.402;0.016;2022-11-30T18:15:05;6.60;99.90
44579;DHT22;37422;51.402;0.016;2022-11-30T18:17:33;6.70;99.90
44579;DHT22;37422;51.402;0.016;2022-11-30T18:20:01;6.60;99.90
44579;DHT22;37422;51.402;0.016;2022-11-30T18:22:29;6.60;99.90
44579;DHT22;37422;51.402;0.016;2022-11-30T18:24:57;6.60;99.90
44579;DHT22;37422;51.402;0.016;2022-11-30T18:27:25;6.60;99.90
44579;DHT22;37422;51.402;0.016;2022-11-30T18:29:53;6.70;99.90
44579;DHT22;37422;51.402;0.016;2022-11-30T18:32:21;5.90;99.90
44579;DHT22;37422;51.402;0.016;2022-11-30T18:34:49;6.60;99.90